Boulmer, United Kingdom
Current Conditions -  °F | °C
As of 3:50 PM on Wednesday 22 Oct 2014 (Local Time) from EGQM Reporting Station
Light Rain Light Rain  
Wind Chill: 52°   Ceiling: 5000
Heat Index: 52°   Visibility: 6mi
Dew Point: 50°   Wind: 15mph
Humidity: 94%   Direction: 230°SW
Pressure: 30"   Gusts: NA
Location:  55.42°N, 1.58°W
Report Text: EGQM 221450Z AUTO 23013KT 9999 -RA SCT018/// BKN050/// 11/10 Q1016
Loading
Personal Weather Stations






























Interactive Weather Map
Tropical Storm Tracking
New forecast layout! Learn more

10-Day Weather Forecast

Advertisements
Track Severe Weather on mobile